Time;durP1;ratioP1;P1;durP2;ratioP2;P2;SDS_P1;SDS_P2;PMS_P1;PMS_P2;Temp;Humidity;BMP_temperature;BMP_pressure;BME280_temperature;BME280_humidity;BME280_pressure;Samples;Min_cycle;Max_cycle;Signal;HPM_P1;HPM_P2
2022/06/21 00:02:11;;;;;;;2.70;2.50;;;9.50;99.90;;;;;;5053643;28;20197;-76
2022/06/21 00:04:38;;;;;;;3.63;2.57;;;9.50;99.90;;;;;;5053618;28;20201;-76
2022/06/21 00:07:10;;;;;;;3.37;2.57;;;9.50;99.90;;;;;;5053471;28;20205;-76
2022/06/21 00:09:36;;;;;;;3.60;2.70;;;9.20;99.90;;;;;;5053492;28;20201;-76
2022/06/21 00:12:04;;;;;;;3.40;2.90;;;9.30;99.90;;;;;;5053535;28;20198;-76
2022/06/21 00:14:30;;;;;;;2.90;2.70;;;9.20;99.90;;;;;;5053244;28;20714;-76
2022/06/21 00:16:57;;;;;;;2.83;2.60;;;9.30;99.90;;;;;;5053337;28;20201;-76
2022/06/21 00:19:25;;;;;;;3.60;2.67;;;9.30;99.90;;;;;;5053219;28;20233;-76
2022/06/21 00:21:53;;;;;;;4.97;2.70;;;9.50;99.90;;;;;;5053129;28;20599;-76
2022/06/21 00:24:21;;;;;;;3.07;2.67;;;9.40;99.90;;;;;;5052572;28;20201;-76
2022/06/21 00:26:48;;;;;;;2.83;2.60;;;9.30;99.90;;;;;;5053394;28;20255;-75
2022/06/21 00:29:15;;;;;;;3.50;2.90;;;9.40;99.90;;;;;;5053197;28;20263;-78
2022/06/21 00:31:46;;;;;;;3.23;2.93;;;9.40;99.90;;;;;;5053219;28;20210;-75
2022/06/21 00:34:15;;;;;;;3.13;2.83;;;9.30;99.90;;;;;;5053141;28;20198;-76
2022/06/21 00:36:42;;;;;;;3.20;2.73;;;9.10;99.90;;;;;;5052888;28;20194;-76
2022/06/21 00:39:13;;;;;;;3.63;3.33;;;8.90;99.90;;;;;;5052745;28;20696;-75
2022/06/21 00:41:45;;;;;;;3.47;3.17;;;8.80;99.90;;;;;;5053017;28;20202;-75
2022/06/21 00:44:15;;;;;;;4.23;3.00;;;8.70;99.90;;;;;;5053019;28;20202;-76
2022/06/21 00:46:45;;;;;;;7.20;3.17;;;8.70;99.90;;;;;;5052883;28;20243;-76
2022/06/21 00:49:16;;;;;;;3.70;3.03;;;8.90;99.90;;;;;;5052928;28;20603;-76
2022/06/21 00:51:43;;;;;;;3.43;3.03;;;9.00;99.90;;;;;;5052946;28;20197;-75
2022/06/21 00:54:16;;;;;;;3.67;2.93;;;9.00;99.90;;;;;;5052625;28;20291;-76
2022/06/21 00:56:52;;;;;;;4.30;3.50;;;9.00;99.90;;;;;;5052870;28;20243;-75
2022/06/21 00:59:21;;;;;;;6.50;3.67;;;9.00;99.90;;;;;;5052627;28;20267;-76
2022/06/21 01:01:49;;;;;;;3.63;3.20;;;8.80;99.90;;;;;;5052657;28;20197;-76
2022/06/21 01:04:29;;;;;;;4.00;3.40;;;9.00;99.90;;;;;;5052643;28;20687;-76
2022/06/21 01:06:59;;;;;;;4.17;3.47;;;9.00;99.90;;;;;;5052865;28;20250;-76
2022/06/21 01:09:31;;;;;;;4.70;3.30;;;8.90;99.90;;;;;;5052578;28;20584;-76
2022/06/21 01:12:05;;;;;;;3.77;3.30;;;8.80;99.90;;;;;;5052486;28;20664;-78
2022/06/21 01:14:33;;;;;;;4.87;2.93;;;8.80;99.90;;;;;;5052755;28;20198;-76
2022/06/21 01:17:00;;;;;;;4.50;3.53;;;8.70;99.90;;;;;;5052654;28;20247;-78
2022/06/21 01:19:37;;;;;;;3.77;3.40;;;8.60;99.90;;;;;;5052552;28;20222;-78
2022/06/21 01:22:13;;;;;;;5.53;3.57;;;8.50;99.90;;;;;;5052645;28;20201;-76
2022/06/21 01:24:49;;;;;;;4.43;4.03;;;8.40;99.90;;;;;;5052469;28;20197;-75
2022/06/21 01:27:18;;;;;;;5.10;3.60;;;8.40;99.90;;;;;;5052652;28;20251;-76
2022/06/21 01:29:45;;;;;;;4.53;4.10;;;8.30;99.90;;;;;;5052615;28;20201;-77
2022/06/21 01:32:12;;;;;;;4.40;4.00;;;8.30;99.90;;;;;;5052484;28;20197;-77
2022/06/21 01:34:39;;;;;;;5.57;4.40;;;8.30;99.90;;;;;;5052469;28;20197;-77
2022/06/21 01:37:11;;;;;;;6.30;4.43;;;8.10;99.90;;;;;;5055331;28;20200;-76
2022/06/21 01:39:44;;;;;;;5.17;3.93;;;8.10;99.90;;;;;;5056368;28;20226;-76
2022/06/21 01:42:15;;;;;;;6.13;4.13;;;8.00;99.90;;;;;;5056402;28;20197;-76
2022/06/21 01:44:47;;;;;;;5.70;4.13;;;8.00;99.90;;;;;;5056337;28;20252;-77
2022/06/21 01:47:17;;;;;;;6.57;4.37;;;8.00;99.90;;;;;;5056276;28;20201;-77
2022/06/21 01:49:49;;;;;;;5.23;4.30;;;7.90;99.90;;;;;;5056064;28;20202;-77
2022/06/21 01:52:21;;;;;;;4.47;4.00;;;7.80;99.90;;;;;;5056301;28;20256;-77
2022/06/21 01:54:53;;;;;;;6.03;3.87;;;7.80;99.90;;;;;;5056102;28;20248;-77
2022/06/21 01:57:20;;;;;;;4.23;3.83;;;7.90;99.90;;;;;;5056092;28;20259;-77
2022/06/21 01:59:50;;;;;;;4.07;3.73;;;8.20;99.90;;;;;;5055875;28;20276;-77
2022/06/21 02:02:21;;;;;;;3.87;3.47;;;8.20;99.90;;;;;;5055740;28;20197;-76
2022/06/21 02:04:54;;;;;;;5.50;3.73;;;8.40;99.90;;;;;;5056006;28;20198;-76
2022/06/21 02:07:29;;;;;;;6.10;4.00;;;8.20;99.90;;;;;;5056199;28;20201;-77
2022/06/21 02:10:06;;;;;;;6.93;4.17;;;8.10;99.90;;;;;;5055748;28;20210;-77
2022/06/21 02:12:35;;;;;;;7.33;4.30;;;7.90;99.90;;;;;;5055625;28;20288;-77
2022/06/21 02:15:06;;;;;;;5.53;4.27;;;7.80;99.90;;;;;;5055856;28;20209;-76
2022/06/21 02:17:39;;;;;;;5.83;4.07;;;7.80;99.90;;;;;;5055733;28;20609;-77
2022/06/21 02:20:12;;;;;;;4.37;3.97;;;7.80;99.90;;;;;;5055679;28;20208;-76
2022/06/21 02:22:40;;;;;;;5.43;4.27;;;7.80;99.90;;;;;;5055470;28;20205;-77
2022/06/21 02:25:10;;;;;;;4.63;4.23;;;7.60;99.90;;;;;;5055326;28;20200;-76
2022/06/21 02:27:37;;;;;;;4.80;4.30;;;7.70;99.90;;;;;;5055613;28;20202;-76
2022/06/21 02:30:16;;;;;;;6.50;4.40;;;7.90;99.90;;;;;;5055563;28;20209;-76
2022/06/21 02:32:43;;;;;;;5.60;4.70;;;8.10;99.90;;;;;;5055269;28;20732;-77
2022/06/21 02:35:19;;;;;;;4.90;4.33;;;8.00;99.90;;;;;;5055192;28;20604;-77
2022/06/21 02:37:48;;;;;;;4.87;4.33;;;8.10;99.90;;;;;;5055096;28;20209;-77
2022/06/21 02:40:20;;;;;;;5.90;4.17;;;8.00;99.90;;;;;;5055279;28;20204;-77
2022/06/21 02:42:50;;;;;;;6.30;4.67;;;8.10;99.90;;;;;;5055242;28;20203;-76
2022/06/21 02:45:27;;;;;;;5.00;4.50;;;8.00;99.90;;;;;;5055132;28;20201;-76
2022/06/21 02:47:56;;;;;;;5.07;4.50;;;8.00;99.90;;;;;;5054565;28;20202;-76
2022/06/21 02:50:36;;;;;;;7.20;4.60;;;8.00;99.90;;;;;;5055088;28;20228;-76
2022/06/21 02:53:07;;;;;;;5.40;4.60;;;8.00;99.90;;;;;;5054633;28;20558;-76
2022/06/21 02:55:41;;;;;;;6.07;4.27;;;7.90;99.90;;;;;;5054904;28;20605;-76
2022/06/21 02:58:16;;;;;;;5.20;4.57;;;7.60;99.90;;;;;;5054688;28;20194;-76
2022/06/21 03:00:44;;;;;;;4.77;4.30;;;7.70;99.90;;;;;;5054605;28;20648;-76
2022/06/21 03:03:18;;;;;;;4.83;4.37;;;7.60;99.90;;;;;;5054787;28;20202;-76
2022/06/21 03:05:46;;;;;;;5.60;5.10;;;7.40;99.90;;;;;;5054581;28;20237;-76
2022/06/21 03:08:13;;;;;;;5.03;4.53;;;7.30;99.90;;;;;;5054655;28;20252;-76
2022/06/21 03:10:43;;;;;;;5.53;4.93;;;7.40;99.90;;;;;;5054568;28;20237;-76
2022/06/21 03:13:13;;;;;;;5.97;5.03;;;7.40;99.90;;;;;;5054682;28;20225;-76
2022/06/21 03:15:42;;;;;;;6.77;5.20;;;7.40;99.90;;;;;;5054817;28;20198;-76
2022/06/21 03:18:14;;;;;;;6.97;5.40;;;7.20;99.90;;;;;;5054465;28;20205;-77
2022/06/21 03:20:42;;;;;;;7.03;5.80;;;7.30;99.90;;;;;;5054440;28;20209;-77
2022/06/21 03:23:13;;;;;;;6.93;5.50;;;7.30;99.90;;;;;;5054304;28;20256;-76
2022/06/21 03:25:45;;;;;;;8.20;5.63;;;7.20;99.90;;;;;;5054342;28;20595;-77
2022/06/21 03:28:25;;;;;;;5.70;5.20;;;7.20;99.90;;;;;;5054398;28;20201;-76
2022/06/21 03:30:59;;;;;;;6.33;5.23;;;7.30;99.90;;;;;;5054428;28;20247;-77
2022/06/21 03:33:29;;;;;;;6.10;5.57;;;7.30;99.90;;;;;;5054338;28;20645;-77
2022/06/21 03:35:57;;;;;;;6.33;5.70;;;7.40;99.90;;;;;;5054376;28;20218;-77
2022/06/21 03:38:24;;;;;;;7.63;5.77;;;7.60;99.90;;;;;;5054105;28;20595;-77
2022/06/21 03:43:43;;;;;;;5.50;5.00;;;7.50;99.90;;;;;;5053979;28;20657;-77
2022/06/21 03:46:14;;;;;;;6.20;5.10;;;7.80;99.90;;;;;;5053887;28;20197;-77
2022/06/21 03:48:49;;;;;;;5.50;4.90;;;7.90;99.90;;;;;;5054065;28;20215;-77
2022/06/21 03:51:19;;;;;;;6.00;5.00;;;7.80;99.90;;;;;;5053985;28;20246;-76
2022/06/21 03:53:50;;;;;;;5.63;5.03;;;7.90;99.90;;;;;;5053646;28;20232;-77
2022/06/21 03:56:24;;;;;;;4.73;4.33;;;8.10;99.90;;;;;;5053917;28;20279;-77
2022/06/21 03:58:59;;;;;;;5.03;4.30;;;8.20;99.90;;;;;;5052723;28;20217;-77
2022/06/21 04:01:31;;;;;;;4.10;3.80;;;8.30;99.90;;;;;;5053784;28;20197;-77
2022/06/21 04:04:07;;;;;;;4.60;4.20;;;8.20;99.90;;;;;;5053745;28;20251;-77
2022/06/21 04:06:37;;;;;;;4.83;4.00;;;8.10;99.90;;;;;;5053648;28;20201;-77
2022/06/21 04:09:10;;;;;;;3.90;3.50;;;8.30;99.90;;;;;;5053456;28;20205;-77
2022/06/21 04:11:43;;;;;;;4.47;3.70;;;8.40;99.90;;;;;;5053698;28;20182;-77
2022/06/21 04:14:19;;;;;;;4.30;3.90;;;8.40;99.90;;;;;;5053289;28;20703;-77
2022/06/21 04:16:51;;;;;;;6.27;4.30;;;8.60;99.90;;;;;;5053430;28;20611;-76
2022/06/21 04:19:24;;;;;;;4.50;4.10;;;8.70;99.90;;;;;;5053043;28;20694;-77
2022/06/21 04:21:58;;;;;;;5.20;4.70;;;8.70;99.90;;;;;;5053032;28;20194;-77
2022/06/21 04:24:30;;;;;;;5.83;4.37;;;8.90;99.90;;;;;;5053163;28;20726;-77
2022/06/21 04:27:02;;;;;;;4.93;4.43;;;9.00;99.90;;;;;;5053110;28;20711;-76
2022/06/21 04:29:33;;;;;;;4.40;4.00;;;9.00;99.90;;;;;;5053201;28;20197;-76
2022/06/21 04:32:07;;;;;;;4.60;4.20;;;9.10;99.90;;;;;;5053005;28;20255;-75
2022/06/21 04:34:39;;;;;;;5.80;4.33;;;9.20;99.90;;;;;;5052854;28;20207;-75
2022/06/21 04:37:10;;;;;;;8.17;3.70;;;9.40;99.90;;;;;;5053121;28;20202;-74
2022/06/21 04:39:40;;;;;;;6.03;3.87;;;9.50;99.90;;;;;;5052848;28;20229;-75
2022/06/21 04:42:13;;;;;;;4.27;3.87;;;9.50;99.90;;;;;;5052990;28;20264;-75
2022/06/21 04:44:46;;;;;;;5.30;4.00;;;9.60;99.90;;;;;;5052733;28;20202;-75
2022/06/21 04:47:18;;;;;;;5.60;4.53;;;9.70;99.90;;;;;;5052952;28;20198;-74
2022/06/21 04:49:49;;;;;;;4.90;4.40;;;9.90;99.90;;;;;;5052809;28;20202;-75
2022/06/21 04:52:21;;;;;;;4.43;4.03;;;10.10;99.90;;;;;;5052804;28;20201;-75
2022/06/21 04:54:47;;;;;;;7.83;4.50;;;10.20;99.90;;;;;;5053206;28;20260;-75
2022/06/21 04:57:16;;;;;;;6.07;4.10;;;10.30;99.90;;;;;;5052557;28;20228;-75
2022/06/21 04:59:46;;;;;;;5.40;4.40;;;10.40;99.90;;;;;;5052637;28;20225;-75
2022/06/21 05:02:20;;;;;;;4.23;3.73;;;10.40;99.90;;;;;;5052497;28;20194;-75
2022/06/21 05:04:51;;;;;;;5.20;4.00;;;10.50;99.90;;;;;;5052634;28;20236;-75
2022/06/21 05:07:20;;;;;;;4.97;3.77;;;10.60;99.90;;;;;;5052762;28;20197;-72
2022/06/21 05:09:49;;;;;;;5.07;4.07;;;10.70;99.90;;;;;;5053469;28;20201;-72
2022/06/21 05:12:23;;;;;;;5.23;4.37;;;10.90;99.90;;;;;;5056735;28;20653;-72
2022/06/21 05:14:56;;;;;;;5.20;4.70;;;11.00;99.90;;;;;;5056833;28;20327;-72
2022/06/21 05:17:23;;;;;;;6.50;4.90;;;11.20;99.90;;;;;;5056766;28;20276;-72
2022/06/21 05:19:54;;;;;;;7.93;4.70;;;11.30;99.90;;;;;;5056526;28;20307;-72
2022/06/21 05:22:27;;;;;;;6.97;4.73;;;11.50;99.90;;;;;;5056492;28;20660;-72
2022/06/21 05:24:55;;;;;;;6.00;4.90;;;11.70;99.90;;;;;;5056620;28;20225;-75
2022/06/21 05:27:28;;;;;;;6.47;4.40;;;11.80;99.90;;;;;;5056514;28;20190;-81
2022/06/21 05:30:03;;;;;;;4.67;4.23;;;12.00;99.90;;;;;;5056521;28;20718;-77
2022/06/21 05:32:35;;;;;;;8.43;5.73;;;12.10;99.90;;;;;;5056344;28;20197;-77
2022/06/21 05:35:11;;;;;;;7.67;5.07;;;12.20;99.90;;;;;;5056526;28;20201;-77
2022/06/21 05:37:49;;;;;;;7.60;5.90;;;12.30;99.90;;;;;;5056439;28;20445;-77
2022/06/21 05:40:23;;;;;;;7.30;4.90;;;12.50;99.90;;;;;;5056358;28;20221;-77
2022/06/21 05:42:50;;;;;;;6.20;4.93;;;12.60;99.90;;;;;;5056113;28;20193;-77
2022/06/21 05:45:19;;;;;;;6.50;4.50;;;12.70;99.90;;;;;;5056025;28;20202;-77
2022/06/21 05:47:53;;;;;;;8.17;4.90;;;12.90;99.90;;;;;;5055854;28;20241;-77
2022/06/21 05:50:32;;;;;;;14.50;5.40;;;13.00;99.90;;;;;;5056236;28;20260;-77
2022/06/21 05:53:09;;;;;;;7.40;4.90;;;13.10;99.90;;;;;;5055911;28;20241;-77
2022/06/21 05:55:39;;;;;;;5.93;5.27;;;13.20;99.90;;;;;;5055968;28;20236;-78
2022/06/21 05:58:12;;;;;;;7.03;5.37;;;13.30;99.90;;;;;;5056010;28;20604;-77
2022/06/21 06:00:44;;;;;;;7.87;5.57;;;13.30;99.90;;;;;;5055916;28;20225;-78
2022/06/21 06:03:15;;;;;;;10.97;5.53;;;13.40;99.90;;;;;;5055852;28;20252;-78
2022/06/21 06:05:45;;;;;;;5.50;4.70;;;13.60;99.90;;;;;;5055815;28;20193;-78
2022/06/21 06:08:17;;;;;;;6.43;4.80;;;13.70;99.90;;;;;;5055813;28;20726;-77
2022/06/21 06:10:45;;;;;;;6.70;5.10;;;13.80;99.90;;;;;;5056103;28;20251;-78
2022/06/21 06:13:15;;;;;;;7.53;5.70;;;13.90;99.90;;;;;;5055905;28;20244;-78
2022/06/21 06:15:47;;;;;;;7.77;5.10;;;14.10;99.90;;;;;;5055975;28;20607;-77
2022/06/21 06:18:19;;;;;;;6.80;5.00;;;14.20;99.90;;;;;;5055744;28;20206;-77
2022/06/21 06:20:53;;;;;;;5.10;4.57;;;14.20;99.90;;;;;;5055423;28;20635;-77
2022/06/21 06:23:28;;;;;;;11.27;4.87;;;14.30;99.90;;;;;;5055180;28;20201;-77
2022/06/21 06:25:59;;;;;;;5.77;4.57;;;14.40;99.90;;;;;;5055501;28;20223;-77
2022/06/21 06:28:32;;;;;;;6.20;4.40;;;14.60;99.90;;;;;;5055738;28;20710;-77
2022/06/21 06:31:05;;;;;;;5.67;4.83;;;14.60;99.90;;;;;;5055230;28;20201;-77
2022/06/21 06:33:36;;;;;;;6.47;4.43;;;14.60;99.90;;;;;;5055415;28;20208;-77
2022/06/21 06:36:09;;;;;;;7.77;5.13;;;14.70;99.90;;;;;;5055373;28;20259;-77
2022/06/21 06:38:36;;;;;;;6.23;4.67;;;14.80;99.90;;;;;;5055245;28;20201;-77
2022/06/21 06:41:09;;;;;;;5.67;4.90;;;15.00;99.90;;;;;;5054993;28;20332;-77
2022/06/21 06:43:41;;;;;;;8.20;4.83;;;15.10;99.90;;;;;;5054999;28;20229;-77
2022/06/21 06:46:16;;;;;;;6.07;5.13;;;15.20;99.90;;;;;;5055119;28;20202;-77
2022/06/21 06:48:44;;;;;;;6.20;4.30;;;15.30;99.90;;;;;;5055242;28;20247;-77
2022/06/21 06:51:44;;;;;;;7.37;4.60;;;15.40;99.90;;;;;;5055616;28;20352;-78
2022/06/21 06:54:18;;;;;;;7.70;4.40;;;15.40;99.90;;;;;;5054983;28;20692;-77
2022/06/21 06:56:54;;;;;;;7.87;4.23;;;15.50;99.90;;;;;;5055234;28;20198;-77
2022/06/21 06:59:24;;;;;;;6.33;3.83;;;15.50;99.90;;;;;;5054759;28;20201;-76
2022/06/21 07:01:57;;;;;;;6.27;3.70;;;15.60;99.90;;;;;;5054794;28;20204;-76
2022/06/21 07:04:26;;;;;;;7.70;4.33;;;15.70;99.90;;;;;;5054485;28;20193;-78
2022/06/21 07:07:00;;;;;;;5.73;4.13;;;15.90;99.90;;;;;;5054746;28;20201;-77
2022/06/21 07:09:29;;;;;;;4.50;3.77;;;16.00;99.90;;;;;;5054612;28;20197;-78
2022/06/21 07:12:02;;;;;;;7.00;4.10;;;16.10;99.90;;;;;;5054744;28;20201;-78
2022/06/21 07:14:30;;;;;;;5.47;3.57;;;16.10;99.90;;;;;;5054441;28;20260;-78
2022/06/21 07:17:02;;;;;;;5.35;3.83;;;16.10;99.90;;;;;;5054296;28;20288;-77
2022/06/21 07:19:29;;;;;;;4.97;3.57;;;16.10;99.90;;;;;;5054357;28;20197;-77
2022/06/21 07:21:57;;;;;;;4.68;3.00;;;16.10;99.90;;;;;;5054175;28;20197;-77
2022/06/21 07:24:24;;;;;;;6.90;3.67;;;16.20;99.90;;;;;;5054276;28;20197;-78
2022/06/21 07:26:56;;;;;;;5.82;3.55;;;16.50;99.90;;;;;;5054096;28;20201;-78
2022/06/21 07:29:27;;;;;;;5.78;3.85;;;16.60;99.90;;;;;;5053986;28;20206;-78
2022/06/21 07:31:57;;;;;;;5.75;3.88;;;16.70;99.90;;;;;;5054132;28;20259;-77
2022/06/21 07:34:29;;;;;;;4.35;3.25;;;16.80;99.90;;;;;;5053063;28;20204;-78
2022/06/21 07:37:02;;;;;;;5.07;3.38;;;16.80;99.90;;;;;;5054086;28;20198;-79
2022/06/21 07:39:35;;;;;;;8.25;3.15;;;16.70;99.90;;;;;;5053882;28;20202;-78
2022/06/21 07:42:07;;;;;;;6.78;3.35;;;16.80;99.90;;;;;;5053822;28;20201;-77
2022/06/21 07:44:39;;;;;;;4.68;3.80;;;16.90;99.90;;;;;;5053790;28;20660;-77
2022/06/21 07:47:11;;;;;;;7.90;4.05;;;17.00;99.90;;;;;;5053899;28;20201;-78
2022/06/21 07:49:41;;;;;;;5.20;3.80;;;17.10;99.90;;;;;;5053826;28;20235;-78
2022/06/21 07:52:15;;;;;;;4.93;3.15;;;17.20;99.90;;;;;;5054153;28;20202;-79
2022/06/21 07:54:46;;;;;;;6.65;3.22;;;17.30;99.90;;;;;;5053235;28;20635;-78
2022/06/21 07:57:19;;;;;;;4.93;3.10;;;17.60;99.90;;;;;;5053810;28;20542;-77
2022/06/21 07:59:50;;;;;;;6.13;3.30;;;17.90;99.90;;;;;;5053663;28;20229;-79
2022/06/21 08:08:16;;;;;;;6.18;3.08;;;18.60;99.90;;;;;;5011447;28;20224;-77
2022/06/21 08:10:47;;;;;;;5.15;3.42;;;18.70;99.90;;;;;;5044767;28;20201;-77
2022/06/21 08:13:14;;;;;;;4.22;3.10;;;18.60;99.90;;;;;;5053381;28;20198;-77
2022/06/21 08:15:44;;;;;;;3.92;3.10;;;18.70;99.90;;;;;;5053456;28;20209;-77
2022/06/21 08:18:18;;;;;;;5.57;3.25;;;18.80;99.90;;;;;;5053359;28;20263;-77
2022/06/21 08:20:47;;;;;;;4.28;3.13;;;19.20;99.90;;;;;;5053177;28;20221;-77
2022/06/21 08:23:19;;;;;;;3.85;2.92;;;19.50;99.10;;;;;;5053154;28;20228;-77
2022/06/21 08:25:54;;;;;;;6.28;3.38;;;19.70;98.00;;;;;;5053293;28;20255;-78
2022/06/21 08:28:26;;;;;;;3.67;2.72;;;19.70;96.40;;;;;;5053338;28;20197;-79
2022/06/21 08:30:56;;;;;;;7.65;2.92;;;19.90;97.40;;;;;;5053300;28;20202;-78
2022/06/21 08:33:29;;;;;;;3.45;2.58;;;20.10;94.00;;;;;;5052984;28;20206;-78
2022/06/21 08:36:02;;;;;;;2.70;2.45;;;20.10;93.60;;;;;;5053021;28;20243;-78
2022/06/21 08:38:33;;;;;;;3.58;2.35;;;20.20;91.30;;;;;;5053117;28;20194;-78
2022/06/21 08:44:25;;;;;;;3.22;2.50;;;20.70;86.40;;;;;;5052552;28;20205;-78
2022/06/21 08:47:37;;;;;;;2.95;2.25;;;21.00;81.60;;;;;;5052898;28;20201;-78
2022/06/21 08:50:39;;;;;;;3.80;2.45;;;21.20;76.10;;;;;;5049169;28;20205;-78
2022/06/21 08:53:26;;;;;;;4.03;2.40;;;21.40;75.70;;;;;;5052686;28;20267;-78
2022/06/21 08:56:03;;;;;;;4.97;2.33;;;21.60;73.20;;;;;;5052845;28;20552;-78
2022/06/21 08:58:44;;;;;;;5.40;2.67;;;21.70;65.00;;;;;;5052624;28;20193;-77
2022/06/21 09:01:19;;;;;;;4.38;2.58;;;21.70;66.80;;;;;;5052588;28;20308;-77
2022/06/21 09:04:00;;;;;;;4.10;2.50;;;21.60;66.50;;;;;;5052877;28;20271;-78
2022/06/21 09:06:37;;;;;;;5.18;2.92;;;21.70;67.00;;;;;;5052715;28;20557;-78
2022/06/21 09:09:38;;;;;;;4.30;2.65;;;22.60;63.10;;;;;;5052587;28;20247;-78
2022/06/21 09:12:17;;;;;;;3.55;2.65;;;23.00;60.40;;;;;;5047783;28;20247;-77
2022/06/21 09:15:08;;;;;;;4.47;2.70;;;23.60;59.30;;;;;;5052591;28;20247;-78
2022/06/21 09:17:43;;;;;;;5.55;2.67;;;23.70;57.50;;;;;;5052422;28;20193;-77
2022/06/21 09:20:25;;;;;;;3.60;2.53;;;23.20;56.00;;;;;;5052557;28;20577;-78
2022/06/21 09:23:05;;;;;;;3.67;2.70;;;23.40;57.80;;;;;;5052568;28;20272;-77
2022/06/21 09:25:44;;;;;;;3.30;2.42;;;23.70;55.20;;;;;;5052394;28;20197;-77
2022/06/21 09:28:24;;;;;;;3.47;2.20;;;22.80;55.50;;;;;;5052428;28;20253;-77
2022/06/21 09:30:57;;;;;;;5.53;2.63;;;23.00;52.10;;;;;;5052507;28;20201;-78
2022/06/21 09:33:31;;;;;;;4.43;2.72;;;22.30;52.40;;;;;;5052577;28;20208;-77
2022/06/21 09:36:05;;;;;;;3.40;2.17;;;22.90;51.20;;;;;;5052457;28;20198;-77
2022/06/21 09:38:39;;;;;;;5.07;2.30;;;22.70;48.10;;;;;;5052472;28;20201;-76
2022/06/21 09:41:10;;;;;;;4.28;2.42;;;22.30;50.30;;;;;;5052685;28;20229;-76
2022/06/21 09:43:53;;;;;;;4.63;2.85;;;23.20;52.20;;;;;;5052557;28;20198;-76
2022/06/21 09:46:30;;;;;;;5.57;2.72;;;23.60;52.70;;;;;;5052463;28;20264;-79
2022/06/21 09:49:04;;;;;;;3.00;2.30;;;24.40;52.30;;;;;;5052088;28;20251;-78
2022/06/21 09:51:40;;;;;;;4.78;2.67;;;24.90;47.10;;;;;;5052301;28;20239;-76
2022/06/21 09:54:21;;;;;;;3.60;2.10;;;25.30;45.40;;;;;;5052131;28;20225;-76
2022/06/21 09:56:53;;;;;;;2.88;2.22;;;24.80;43.20;;;;;;5053292;28;20193;-76
2022/06/21 09:59:26;;;;;;;4.28;2.20;;;24.40;43.10;;;;;;5056232;28;20202;-76
2022/06/21 10:02:01;;;;;;;4.30;2.30;;;24.50;40.50;;;;;;5055824;28;20267;-76
2022/06/21 10:04:37;;;;;;;3.28;2.13;;;24.80;41.30;;;;;;5055650;28;20583;-76
2022/06/21 10:07:18;;;;;;;3.42;2.25;;;25.20;39.80;;;;;;5055761;28;20201;-76
2022/06/21 10:09:55;;;;;;;2.83;2.00;;;25.60;38.40;;;;;;5055573;28;20257;-76
2022/06/21 10:12:33;;;;;;;4.13;2.42;;;26.10;35.90;;;;;;5055631;28;20251;-77
2022/06/21 10:15:29;;;;;;;3.40;2.67;;;26.10;37.30;;;;;;5055423;28;20201;-77
2022/06/21 10:18:19;;;;;;;3.70;2.00;;;26.70;36.60;;;;;;5055368;28;20718;-77
2022/06/21 10:21:05;;;;;;;3.35;2.17;;;26.70;35.00;;;;;;5055524;28;20222;-76
2022/06/21 10:23:48;;;;;;;2.72;1.90;;;27.00;34.10;;;;;;5055378;28;20196;-76
2022/06/21 10:26:35;;;;;;;2.30;1.90;;;27.70;32.30;;;;;;5055382;28;20197;-77
2022/06/21 10:29:17;;;;;;;2.78;2.05;;;28.30;29.80;;;;;;5055475;28;20204;-77
2022/06/21 10:32:12;;;;;;;4.93;1.90;;;28.80;27.30;;;;;;5055317;28;20251;-77
2022/06/21 10:34:54;;;;;;;2.55;2.00;;;29.20;27.60;;;;;;5055041;28;20668;-76
2022/06/21 10:37:32;;;;;;;3.33;2.00;;;29.60;28.00;;;;;;5055254;28;20202;-77
2022/06/21 10:40:22;;;;;;;2.75;1.88;;;30.30;27.70;;;;;;5055024;28;20598;-77
2022/06/21 10:43:15;;;;;;;2.88;1.80;;;30.10;25.40;;;;;;5054933;28;20251;-77
2022/06/21 10:45:49;;;;;;;2.58;1.67;;;29.80;24.30;;;;;;5055191;28;20201;-77
2022/06/21 10:48:54;;;;;;;5.22;1.85;;;30.30;25.70;;;;;;5054936;28;20281;-77
2022/06/21 10:51:31;;;;;;;7.90;2.00;;;31.10;24.30;;;;;;5054752;28;20609;-78
2022/06/21 10:54:19;;;;;;;4.55;1.85;;;31.10;22.60;;;;;;5056667;28;20229;-79
2022/06/21 10:57:11;;;;;;;4.60;2.08;;;31.50;22.60;;;;;;5055089;28;20200;-78
2022/06/21 11:03:11;;;;;;;3.55;2.20;;;30.70;21.20;;;;;;5054880;28;20247;-78
2022/06/21 11:05:55;;;;;;;2.40;2.00;;;30.20;21.30;;;;;;5054734;28;20236;-78
2022/06/21 11:08:32;;;;;;;5.47;2.20;;;30.80;22.80;;;;;;5054685;28;20197;-77
2022/06/21 11:11:05;;;;;;;3.50;1.90;;;30.90;21.30;;;;;;5054796;28;20196;-78
2022/06/21 11:13:35;;;;;;;2.45;1.85;;;30.60;21.70;;;;;;5054678;28;20202;-78
2022/06/21 11:16:08;;;;;;;2.35;1.85;;;30.30;19.30;;;;;;5054401;28;20194;-76
2022/06/21 11:18:53;;;;;;;4.63;2.20;;;28.70;22.10;;;;;;5054185;28;20201;-77
2022/06/21 11:21:35;;;;;;;3.25;2.00;;;28.90;23.00;;;;;;5054296;28;20312;-77
2022/06/21 11:24:12;;;;;;;2.22;1.85;;;28.60;22.20;;;;;;5054319;28;20202;-76
2022/06/21 11:26:51;;;;;;;3.83;2.17;;;28.90;21.90;;;;;;5054191;28;20204;-78
2022/06/21 11:29:27;;;;;;;3.38;2.10;;;28.60;22.50;;;;;;5054384;28;20193;-78
2022/06/21 11:32:01;;;;;;;3.03;1.90;;;28.40;21.40;;;;;;5054025;28;20632;-78
2022/06/21 11:34:38;;;;;;;2.15;1.77;;;28.00;22.10;;;;;;5054116;28;20587;-78
2022/06/21 11:37:20;;;;;;;2.65;1.85;;;29.90;21.10;;;;;;5053927;28;20198;-77
2022/06/21 11:39:55;;;;;;;2.28;1.70;;;31.00;19.70;;;;;;5054065;28;20284;-78
2022/06/21 11:42:25;;;;;;;3.35;2.00;;;31.40;19.40;;;;;;5053850;28;20228;-77
2022/06/21 11:45:18;;;;;;;2.63;1.95;;;32.30;19.00;;;;;;5053976;28;20292;-78
2022/06/21 11:47:57;;;;;;;3.80;2.05;;;32.50;18.40;;;;;;5053601;28;20197;-78
2022/06/21 11:50:26;;;;;;;4.03;2.30;;;32.00;18.70;;;;;;5053801;28;20563;-77
2022/06/21 11:53:23;;;;;;;3.80;1.85;;;31.40;18.70;;;;;;5053668;28;20232;-78
2022/06/21 11:55:55;;;;;;;4.93;2.08;;;32.60;18.70;;;;;;5053577;28;20204;-78
2022/06/21 11:58:28;;;;;;;4.00;1.90;;;33.90;16.90;;;;;;5053391;28;20671;-78
2022/06/21 12:01:01;;;;;;;2.72;1.63;;;34.20;16.50;;;;;;5053463;28;20197;-78
2022/06/21 12:03:48;;;;;;;3.80;1.90;;;35.20;15.60;;;;;;5053530;28;20538;-78
2022/06/21 12:06:25;;;;;;;4.53;1.60;;;35.90;15.40;;;;;;5053445;28;20201;-78
2022/06/21 12:09:01;;;;;;;2.33;1.70;;;35.90;14.40;;;;;;5053550;28;20201;-78
2022/06/21 12:11:36;;;;;;;2.75;1.65;;;36.30;13.70;;;;;;5053558;28;20197;-78
2022/06/21 12:14:19;;;;;;;4.43;1.73;;;36.20;13.00;;;;;;5053287;28;20656;-77
2022/06/21 12:16:55;;;;;;;2.70;1.85;;;35.90;12.40;;;;;;5053206;28;20209;-77
2022/06/21 12:19:27;;;;;;;2.88;1.88;;;35.70;13.60;;;;;;5052813;28;20295;-78
2022/06/21 12:21:58;;;;;;;2.08;1.80;;;37.00;13.10;;;;;;5053346;28;20279;-78
2022/06/21 12:24:28;;;;;;;2.75;1.70;;;37.50;12.30;;;;;;5053248;28;20607;-78
2022/06/21 12:26:55;;;;;;;2.20;1.58;;;36.80;11.40;;;;;;5053138;28;20595;-78
2022/06/21 12:29:23;;;;;;;3.03;1.90;;;37.80;11.60;;;;;;5052972;28;20197;-77
2022/06/21 12:31:52;;;;;;;4.05;2.00;;;37.40;12.00;;;;;;5053287;28;20275;-77
2022/06/21 12:34:31;;;;;;;2.97;1.80;;;36.20;12.10;;;;;;5053169;28;20199;-77
2022/06/21 12:37:02;;;;;;;2.55;2.10;;;37.10;12.10;;;;;;5053099;28;20243;-76
2022/06/21 12:39:36;;;;;;;4.55;1.70;;;37.20;11.00;;;;;;5053414;28;20197;-76
2022/06/21 12:42:32;;;;;;;3.38;1.77;;;38.20;11.00;;;;;;5052786;28;20358;-76
2022/06/21 12:45:13;;;;;;;2.47;1.60;;;38.00;10.80;;;;;;5052993;28;20201;-77
2022/06/21 12:47:56;;;;;;;2.97;1.90;;;38.00;11.20;;;;;;5052963;28;20196;-78
2022/06/21 12:50:48;;;;;;;1.70;1.50;;;38.90;11.20;;;;;;5053182;28;20205;-78
2022/06/21 12:53:47;;;;;;;2.92;1.90;;;38.90;10.20;;;;;;5052577;28;20261;-78
2022/06/21 12:56:39;;;;;;;3.00;1.90;;;38.60;10.10;;;;;;5052971;28;20603;-78
2022/06/21 12:59:27;;;;;;;4.10;1.88;;;38.70;10.10;;;;;;5052897;28;20564;-78
2022/06/21 13:02:01;;;;;;;2.33;1.40;;;38.70;9.70;;;;;;5052721;28;20611;-78
2022/06/21 13:04:49;;;;;;;4.78;1.77;;;39.50;8.80;;;;;;5052738;28;20198;-77
2022/06/21 13:07:28;;;;;;;1.80;1.60;;;40.10;9.10;;;;;;5052990;28;20204;-77
2022/06/21 13:10:25;;;;;;;1.90;1.50;;;40.20;9.00;;;;;;5052919;28;20196;-77
2022/06/21 13:13:07;;;;;;;2.92;1.90;;;40.20;8.20;;;;;;5051504;28;20208;-78
2022/06/21 13:15:45;;;;;;;10.13;2.17;;;37.00;8.90;;;;;;5052793;28;20473;-76
2022/06/21 13:18:23;;;;;;;8.75;1.85;;;36.70;9.50;;;;;;5052645;28;20263;-78
2022/06/21 13:21:05;;;;;;;2.78;1.80;;;37.70;9.30;;;;;;5052619;28;20196;-78
2022/06/21 13:23:45;;;;;;;2.10;1.58;;;38.40;8.40;;;;;;5052585;28;20247;-77
2022/06/21 13:26:23;;;;;;;2.67;1.58;;;38.90;7.90;;;;;;5052788;28;20246;-78
2022/06/21 13:29:11;;;;;;;2.25;1.85;;;39.80;7.70;;;;;;5052488;28;20242;-77
2022/06/21 13:31:43;;;;;;;3.28;1.60;;;39.70;7.60;;;;;;5054707;28;20205;-77
2022/06/21 13:34:25;;;;;;;2.25;1.50;;;40.10;7.50;;;;;;5056393;28;20201;-78
2022/06/21 13:36:55;;;;;;;1.63;1.33;;;40.90;7.20;;;;;;5056384;28;20295;-76
2022/06/21 13:39:32;;;;;;;1.90;1.60;;;41.50;6.10;;;;;;5056474;28;20193;-77
2022/06/21 13:44:54;;;;;;;1.90;1.60;;;39.60;5.70;;;;;;5056175;28;20200;-78
2022/06/21 13:47:26;;;;;;;2.60;1.30;;;39.00;6.10;;;;;;5056337;28;20294;-78